Time;durP1;ratioP1;P1;durP2;ratioP2;P2;SDS_P1;SDS_P2;PMS_P1;PMS_P2;Temp;Humidity;BMP_temperature;BMP_pressure;BME280_temperature;BME280_humidity;BME280_pressure;Samples;Min_cycle;Max_cycle;Signal;HPM_P1;HPM_P2
2022/09/03 00:02:03;;;;;;;2.83;1.70;;;;;;;16.80;50.06;100536.91;6031491;23;96750;-83
2022/09/03 00:04:56;;;;;;;4.30;2.20;;;;;;;16.74;50.04;100536.28;6012065;23;96971;-83
2022/09/03 00:07:34;;;;;;;2.45;1.40;;;;;;;16.64;50.31;100536.88;6006868;23;97904;-83
2022/09/03 00:10:04;;;;;;;3.30;1.80;;;;;;;16.54;50.09;100523.28;6007601;23;102027;-82
2022/09/03 00:12:38;;;;;;;4.13;1.50;;;;;;;16.57;50.37;100532.88;6009067;23;96928;-83
2022/09/03 00:15:11;;;;;;;3.97;1.60;;;;;;;16.54;50.44;100528.59;6007859;23;96626;-83
2022/09/03 00:17:44;;;;;;;2.83;1.58;;;;;;;16.38;50.73;100509.19;6008017;23;98179;-84
2022/09/03 00:20:30;;;;;;;3.88;2.08;;;;;;;16.44;50.93;100524.75;5983375;23;101384;-83
2022/09/03 00:23:00;;;;;;;2.80;1.70;;;;;;;16.43;50.77;100523.03;6030091;23;97098;-83
2022/09/03 00:25:43;;;;;;;3.17;1.55;;;;;;;16.32;51.11;100528.94;6008875;23;96802;-83
2022/09/03 00:28:24;;;;;;;4.95;1.45;;;;;;;16.33;51.11;100522.69;6007784;23;101017;-83
2022/09/03 00:30:58;;;;;;;5.90;1.80;;;;;;;16.39;50.97;100526.78;6007139;23;101375;-83
2022/09/03 00:33:28;;;;;;;2.65;1.60;;;;;;;16.32;50.91;100520.97;6007260;23;96693;-83
2022/09/03 00:36:02;;;;;;;5.53;1.98;;;;;;;16.30;50.98;100522.84;5987746;23;96916;-83
2022/09/03 00:38:28;;;;;;;3.92;2.00;;;;;;;16.28;51.01;100495.59;6005737;23;100428;-82
2022/09/03 00:41:04;;;;;;;4.07;1.70;;;;;;;16.33;51.32;100516.53;6030670;23;101256;-84
2022/09/03 00:43:45;;;;;;;3.80;1.50;;;;;;;16.32;51.26;100518.34;6008139;23;97233;-83
2022/09/03 00:46:20;;;;;;;4.32;1.40;;;;;;;16.27;51.21;100515.06;6008254;23;96832;-83
2022/09/03 00:49:04;;;;;;;3.47;1.80;;;;;;;16.25;51.05;100517.78;6006625;23;101022;-84
2022/09/03 00:51:35;;;;;;;4.20;1.60;;;;;;;16.02;51.09;100495.19;6008160;23;101254;-83
2022/09/03 00:54:10;;;;;;;;;;;;;;;16.18;51.38;100527.03;6055012;23;97177;-82
2022/09/03 00:56:47;;;;;;;5.22;1.90;;;;;;;16.22;51.12;100514.47;6007066;23;97117;-83
2022/09/03 00:59:37;;;;;;;4.85;1.55;;;;;;;16.13;51.39;100529.06;6031585;23;97909;-83
2022/09/03 01:02:14;;;;;;;2.83;1.70;;;;;;;16.01;52.21;100527.91;6032503;23;97732;-83
2022/09/03 01:05:01;;;;;;;3.22;1.52;;;;;;;16.05;51.70;100525.94;6033124;23;97107;-83
2022/09/03 01:08:08;;;;;;;2.50;1.42;;;;;;;16.05;51.43;100531.25;6033113;23;96652;-82
2022/09/03 01:10:49;;;;;;;4.65;2.00;;;;;;;15.91;51.81;100524.06;6005751;23;99677;-83
2022/09/03 01:13:43;;;;;;;3.78;2.00;;;;;;;15.88;51.88;100521.56;6057958;23;97565;-83
2022/09/03 01:16:27;;;;;;;4.07;2.10;;;;;;;15.86;52.14;100531.38;6053859;23;96961;-84
2022/09/03 01:19:10;;;;;;;3.15;1.88;;;;;;;15.86;52.31;100527.88;6031910;23;97038;-84
2022/09/03 01:21:51;;;;;;;3.03;1.63;;;;;;;15.81;51.98;100522.81;6032492;23;101496;-83
2022/09/03 01:24:16;;;;;;;5.20;1.80;;;;;;;15.69;52.33;100508.44;6033446;23;101467;-83
2022/09/03 01:26:52;;;;;;;4.05;1.95;;;;;;;15.83;52.08;100531.56;6007339;23;98004;-84
2022/09/03 01:29:20;;;;;;;2.42;1.67;;;;;;;15.69;52.29;100526.13;6008220;23;96730;-83
2022/09/03 01:31:56;;;;;;;5.47;2.10;;;;;;;15.68;52.71;100538.50;6031646;23;97882;-83
2022/09/03 01:34:47;;;;;;;3.17;2.13;;;;;;;15.60;52.65;100519.47;6032770;23;98579;-82
2022/09/03 01:37:37;;;;;;;3.95;1.75;;;;;;;15.59;52.57;100515.09;6008144;23;96798;-83
2022/09/03 01:40:29;;;;;;;3.35;1.77;;;;;;;15.53;52.74;100512.78;6032807;23;96983;-83
2022/09/03 01:42:54;;;;;;;;;;;;;;;15.48;53.08;100517.47;6058057;23;99952;-83
2022/09/03 01:45:29;;;;;;;6.80;1.83;;;;;;;15.50;52.84;100520.88;6032406;23;101100;-83
2022/09/03 01:48:31;;;;;;;3.80;2.00;;;;;;;15.48;52.92;100520.97;6030968;23;97294;-83
2022/09/03 01:50:58;;;;;;;4.38;2.10;;;;;;;15.43;52.89;100516.84;6032494;23;97015;-83
2022/09/03 01:53:40;;;;;;;3.70;1.92;;;;;;;15.20;53.10;100500.34;6008988;23;98159;-83
2022/09/03 01:56:10;;;;;;;;;;;;;;;15.27;53.22;100516.75;6009223;23;100760;-83
2022/09/03 01:58:44;;;;;;;3.40;1.70;;;;;;;15.17;53.57;100501.34;6009655;23;96585;-83
2022/09/03 02:01:22;;;;;;;4.15;2.08;;;;;;;15.17;53.07;100500.50;6008842;23;97372;-83
2022/09/03 02:03:49;;;;;;;4.07;2.10;;;;;;;15.06;53.38;100477.22;6006807;23;97925;-82
2022/09/03 02:06:15;;;;;;;5.32;2.33;;;;;;;15.17;53.44;100513.72;6056768;23;97365;-83
2022/09/03 02:08:41;;;;;;;8.82;1.75;;;;;;;15.12;53.21;100513.09;6008801;23;97244;-83
2022/09/03 02:11:08;;;;;;;3.20;1.83;;;;;;;15.10;53.30;100512.34;5984766;23;97263;-83
2022/09/03 02:13:37;;;;;;;4.65;2.00;;;;;;;15.01;53.82;100510.13;6008793;23;101333;-83
2022/09/03 02:16:11;;;;;;;3.33;1.98;;;;;;;15.02;53.67;100515.34;6008000;23;100605;-83
2022/09/03 02:18:49;;;;;;;6.95;2.00;;;;;;;14.96;53.44;100493.66;6007205;23;97584;-83
2022/09/03 02:21:22;;;;;;;2.88;1.67;;;;;;;15.06;53.67;100516.03;6007676;23;97479;-83
2022/09/03 02:23:48;;;;;;;2.75;1.63;;;;;;;14.94;54.36;100513.06;6007667;23;100980;-82
2022/09/03 02:26:17;;;;;;;5.68;1.95;;;;;;;14.84;54.07;100501.25;6008328;23;101593;-83
2022/09/03 02:28:43;;;;;;;5.45;2.15;;;;;;;14.92;54.07;100512.31;6009044;23;97419;-83
2022/09/03 02:31:09;;;;;;;4.85;2.10;;;;;;;14.86;54.24;100512.56;5984554;23;96931;-83
2022/09/03 02:33:39;;;;;;;8.25;2.33;;;;;;;14.89;54.54;100514.22;6008903;23;97416;-83
2022/09/03 02:36:08;;;;;;;3.57;1.93;;;;;;;14.89;53.97;100507.16;6004839;23;101237;-84
2022/09/03 02:38:34;;;;;;;8.40;3.03;;;;;;;14.80;54.28;100510.22;6007556;23;96895;-83
2022/09/03 02:40:59;;;;;;;4.60;1.85;;;;;;;14.73;54.50;100510.63;6032342;23;97342;-83
2022/09/03 02:43:24;;;;;;;4.63;2.63;;;;;;;14.86;54.10;100522.28;6008671;23;98092;-83
2022/09/03 02:45:53;;;;;;;3.13;1.75;;;;;;;14.81;54.04;100519.03;6057321;23;97172;-83
2022/09/03 02:48:22;;;;;;;5.55;2.30;;;;;;;14.76;54.17;100521.03;5984007;23;96979;-84
2022/09/03 02:50:48;;;;;;;3.80;2.20;;;;;;;14.58;54.37;100505.16;6007510;23;96854;-83
2022/09/03 02:53:13;;;;;;;5.50;2.42;;;;;;;14.62;54.56;100522.53;6006964;23;97991;-83
2022/09/03 02:55:39;;;;;;;3.53;1.90;;;;;;;14.75;54.14;100519.31;6006577;23;101216;-83
2022/09/03 02:58:05;;;;;;;3.15;1.95;;;;;;;14.72;54.57;100523.00;6030954;23;97183;-83
2022/09/03 03:00:32;;;;;;;2.20;1.70;;;;;;;14.65;54.49;100521.56;6008897;23;96998;-84
2022/09/03 03:02:58;;;;;;;5.05;1.90;;;;;;;14.65;54.50;100527.69;6007281;23;98106;-83
2022/09/03 03:05:40;;;;;;;3.60;2.05;;;;;;;14.63;54.68;100526.03;5984274;23;100772;-83
2022/09/03 03:08:07;;;;;;;7.20;2.22;;;;;;;14.69;55.01;100526.63;5983482;23;96802;-83
2022/09/03 03:10:34;;;;;;;3.15;2.35;;;;;;;14.62;54.97;100529.63;6007770;23;97118;-83
2022/09/03 03:13:00;;;;;;;5.40;2.53;;;;;;;14.43;55.02;100511.13;6006502;23;101018;-83
2022/09/03 03:15:26;;;;;;;3.22;2.38;;;;;;;14.60;55.08;100511.22;6007759;23;97480;-84
2022/09/03 03:17:55;;;;;;;3.58;2.20;;;;;;;14.61;55.27;100506.78;5983098;23;97203;-84
2022/09/03 03:20:21;;;;;;;4.47;1.92;;;;;;;14.40;55.48;100508.63;6008575;23;97125;-84
2022/09/03 03:22:47;;;;;;;4.18;2.05;;;;;;;14.37;55.70;100524.59;6007843;23;97706;-83
2022/09/03 03:25:12;;;;;;;5.03;2.80;;;;;;;14.29;56.17;100524.97;5983529;23;100989;-83
2022/09/03 03:27:40;;;;;;;4.60;2.05;;;;;;;14.26;55.84;100523.31;6006370;23;97221;-83
2022/09/03 03:30:08;;;;;;;5.03;2.00;;;;;;;14.23;56.33;100525.25;6008118;23;97721;-83
2022/09/03 03:32:35;;;;;;;5.40;2.38;;;;;;;14.20;56.74;100518.31;6032013;23;97061;-82
2022/09/03 03:35:00;;;;;;;4.80;2.78;;;;;;;14.18;56.07;100524.59;6006954;23;97824;-83
2022/09/03 03:37:25;;;;;;;5.15;2.28;;;;;;;14.15;56.05;100491.28;6035512;23;96871;-83
2022/09/03 03:39:51;;;;;;;4.60;2.40;;;;;;;14.20;56.31;100520.13;6037481;23;96988;-83
2022/09/03 03:42:16;;;;;;;6.38;2.22;;;;;;;14.12;56.51;100511.69;6036156;23;100750;-82
2022/09/03 03:44:42;;;;;;;6.60;2.42;;;;;;;14.01;57.26;100522.72;6060667;23;98717;-83
2022/09/03 03:47:08;;;;;;;5.93;2.15;;;;;;;14.11;56.83;100525.78;6035797;23;97234;-84
2022/09/03 03:49:34;;;;;;;3.83;2.20;;;;;;;14.09;55.92;100522.38;6037530;23;97205;-82
2022/09/03 03:51:59;;;;;;;5.13;2.08;;;;;;;13.95;56.63;100515.94;6036306;23;97562;-83
2022/09/03 03:54:25;;;;;;;3.65;2.10;;;;;;;13.96;56.86;100522.06;6061623;23;101082;-82
2022/09/03 03:56:50;;;;;;;4.20;2.15;;;;;;;13.90;57.00;100533.75;6036124;23;96849;-83
2022/09/03 03:59:16;;;;;;;5.75;2.58;;;;;;;13.97;57.18;100534.34;6035724;23;96937;-82
2022/09/03 04:01:41;;;;;;;4.25;2.30;;;;;;;14.04;56.81;100533.97;6059864;23;97445;-83
2022/09/03 04:04:06;;;;;;;5.47;2.10;;;;;;;14.10;56.31;100532.84;6059274;23;97319;-83
2022/09/03 04:06:32;;;;;;;5.80;2.45;;;;;;;14.11;56.45;100533.72;6037371;23;96654;-82
2022/09/03 04:08:57;;;;;;;7.68;2.22;;;;;;;14.03;56.48;100529.66;6036293;23;97402;-83
2022/09/03 04:11:24;;;;;;;8.20;2.38;;;;;;;13.77;56.82;100500.94;6037216;23;101795;-82
2022/09/03 04:13:50;;;;;;;6.28;2.30;;;;;;;13.87;57.29;100518.06;6037453;23;97379;-82
2022/09/03 04:16:18;;;;;;;10.45;2.17;;;;;;;14.05;56.70;100529.59;6034167;23;96998;-82
2022/09/03 04:18:44;;;;;;;4.57;2.08;;;;;;;13.94;56.97;100537.13;6035221;23;97047;-83
2022/09/03 04:21:13;;;;;;;5.13;2.47;;;;;;;13.82;57.39;100510.34;6034658;23;101224;-83
2022/09/03 04:23:41;;;;;;;6.05;2.58;;;;;;;13.89;57.22;100532.03;6061478;23;97966;-83
2022/09/03 04:26:08;;;;;;;4.88;2.40;;;;;;;13.95;57.19;100531.75;6036297;23;97079;-82
2022/09/03 04:28:34;;;;;;;4.78;2.45;;;;;;;13.79;57.33;100518.41;6036381;23;97161;-82
2022/09/03 04:31:07;;;;;;;4.38;2.15;;;;;;;13.92;56.89;100528.41;6011868;23;101347;-83
2022/09/03 04:33:34;;;;;;;5.72;2.45;;;;;;;13.92;56.96;100539.81;6033005;23;101224;-83
2022/09/03 04:36:12;;;;;;;7.80;2.20;;;;;;;14.16;57.14;100540.50;6048445;23;97143;-83
2022/09/03 04:38:40;;;;;;;4.57;2.17;;;;;;;14.03;56.80;100524.38;5984376;23;96905;-83
2022/09/03 04:41:07;;;;;;;6.72;2.67;;;;;;;13.89;57.43;100526.75;5983380;23;100489;-82
2022/09/03 04:43:33;;;;;;;4.30;2.20;;;;;;;14.01;57.08;100549.97;6007812;23;100918;-84
2022/09/03 04:46:00;;;;;;;5.20;2.38;;;;;;;13.94;56.81;100530.06;6006505;23;97254;-84
2022/09/03 04:48:26;;;;;;;3.35;2.22;;;;;;;14.08;57.45;100537.38;5983691;23;97075;-84
2022/09/03 04:50:52;;;;;;;5.57;2.55;;;;;;;13.99;57.19;100538.63;6003670;23;97495;-82
2022/09/03 04:53:17;;;;;;;3.92;2.25;;;;;;;14.12;57.00;100541.56;5982635;23;100960;-81
2022/09/03 04:55:42;;;;;;;5.20;2.60;;;;;;;14.15;57.18;100543.22;6031146;23;96973;-84
2022/09/03 04:58:08;;;;;;;5.05;2.30;;;;;;;14.63;55.65;100548.06;6006536;23;96851;-82
2022/09/03 05:00:35;;;;;;;6.90;2.10;;;;;;;14.83;54.90;100543.59;6030509;23;98004;-82
2022/09/03 05:03:02;;;;;;;5.05;2.45;;;;;;;15.16;54.13;100541.09;6007179;23;97296;-82
2022/09/03 05:05:27;;;;;;;4.20;2.50;;;;;;;15.37;53.54;100545.31;6007386;23;97291;-82
2022/09/03 05:07:57;;;;;;;3.85;1.98;;;;;;;15.49;53.20;100535.91;6006290;23;96875;-83
2022/09/03 05:10:22;;;;;;;4.70;2.25;;;;;;;15.66;53.21;100568.59;6029852;23;97748;-82
2022/09/03 05:13:02;;;;;;;3.40;2.08;;;;;;;15.61;53.03;100560.88;5983114;23;102743;-82
2022/09/03 05:15:28;;;;;;;6.28;2.42;;;;;;;15.57;52.74;100564.63;5983761;23;97044;-83
2022/09/03 05:17:58;;;;;;;4.30;2.10;;;;;;;15.53;52.58;100561.28;6006290;23;96918;-83
2022/09/03 05:20:24;;;;;;;3.28;2.13;;;;;;;15.51;52.74;100563.13;5983462;23;100978;-82
2022/09/03 05:22:50;;;;;;;4.15;2.25;;;;;;;15.64;52.66;100558.06;6007811;23;100817;-83
2022/09/03 05:25:16;;;;;;;6.30;2.00;;;;;;;15.82;52.31;100565.09;6007948;23;96765;-82
2022/09/03 05:27:41;;;;;;;9.50;3.83;;;;;;;15.96;51.50;100569.66;6004743;23;96993;-82
2022/09/03 05:30:08;;;;;;;6.47;2.40;;;;;;;15.80;51.43;100560.81;5981765;23;101659;-82
2022/09/03 05:32:33;;;;;;;3.67;1.90;;;;;;;15.87;51.49;100571.94;6006133;23;101348;-82
2022/09/03 05:34:59;;;;;;;4.22;2.35;;;;;;;16.04;50.84;100566.63;5982448;23;97553;-82
2022/09/03 05:37:24;;;;;;;2.97;2.05;;;;;;;16.14;50.89;100566.97;6034436;23;97293;-82
2022/09/03 05:39:50;;;;;;;9.40;2.28;;;;;;;16.11;50.40;100567.13;6036391;23;101557;-83
2022/09/03 05:42:15;;;;;;;5.07;2.33;;;;;;;16.12;50.69;100559.13;6036284;23;97363;-82
2022/09/03 05:44:41;;;;;;;2.50;1.70;;;;;;;15.95;50.88;100560.00;6033106;23;97089;-82
2022/09/03 05:47:07;;;;;;;8.55;2.50;;;;;;;16.00;50.47;100554.50;6035505;23;97441;-82
2022/09/03 05:49:32;;;;;;;7.45;2.20;;;;;;;16.04;51.17;100559.53;6037513;23;98081;-82
2022/09/03 05:51:58;;;;;;;7.43;2.33;;;;;;;16.20;50.17;100545.47;6037534;23;101156;-82
2022/09/03 05:54:23;;;;;;;3.47;1.90;;;;;;;16.18;50.63;100566.75;6038336;23;97178;-82
2022/09/03 05:56:49;;;;;;;4.60;2.08;;;;;;;16.14;50.03;100557.22;6014357;23;97027;-83
2022/09/03 05:59:15;;;;;;;5.82;2.10;;;;;;;16.09;50.03;100518.72;6012434;23;101400;-82
2022/09/03 06:01:41;;;;;;;8.88;2.28;;;;;;;16.40;50.00;100557.63;6060546;23;97796;-82
2022/09/03 06:04:10;;;;;;;4.07;2.10;;;;;;;16.57;49.51;100564.66;6035728;23;97415;-82
2022/09/03 06:06:37;;;;;;;3.58;1.92;;;;;;;16.68;49.08;100543.72;6036794;23;96823;-83
2022/09/03 06:09:05;;;;;;;3.38;2.30;;;;;;;17.06;48.53;100560.16;6037444;23;100902;-82
2022/09/03 06:11:34;;;;;;;5.53;2.22;;;;;;;17.23;48.19;100560.97;6013773;23;100988;-83
2022/09/03 06:14:01;;;;;;;4.93;2.10;;;;;;;17.36;47.55;100549.53;6061670;23;98552;-83
2022/09/03 06:16:27;;;;;;;4.38;1.90;;;;;;;18.05;46.64;100555.22;6014098;23;96836;-83
2022/09/03 06:18:52;;;;;;;6.32;2.17;;;;;;;18.25;45.71;100551.31;6034580;23;101123;-82
2022/09/03 06:21:18;;;;;;;4.82;2.05;;;;;;;17.65;46.56;100562.91;6036119;23;100270;-83
2022/09/03 06:23:52;;;;;;;4.50;2.15;;;;;;;17.45;46.65;100569.38;6012837;23;97054;-82
2022/09/03 06:26:18;;;;;;;5.88;2.40;;;;;;;17.33;47.19;100564.78;6037933;23;96695;-85
2022/09/03 06:28:47;;;;;;;5.60;2.00;;;;;;;17.44;47.01;100575.63;6061692;23;97683;-82
2022/09/03 06:31:17;;;;;;;5.35;2.35;;;;;;;17.44;47.17;100567.69;6036639;23;97942;-82
2022/09/03 06:33:42;;;;;;;5.22;2.28;;;;;;;18.36;45.95;100574.59;6011727;23;97075;-82
2022/09/03 06:36:11;;;;;;;5.40;2.22;;;;;;;19.27;44.74;100577.63;6023221;23;98566;-82
2022/09/03 06:38:37;;;;;;;6.13;2.70;;;;;;;19.87;43.30;100583.31;5983694;23;101295;-83
2022/09/03 06:41:10;;;;;;;4.03;2.15;;;;;;;20.63;41.51;100573.56;5985247;23;101215;-82
2022/09/03 06:43:38;;;;;;;4.30;2.33;;;;;;;21.32;40.70;100571.19;6008587;23;97208;-83
2022/09/03 06:46:10;;;;;;;8.48;2.40;;;;;;;22.38;38.80;100576.41;6005812;23;97187;-83
2022/09/03 06:48:36;;;;;;;8.05;1.92;;;;;;;23.46;37.28;100558.63;6005239;23;101267;-82
2022/09/03 06:51:32;;;;;;;3.38;2.03;;;;;;;24.23;34.82;100554.78;6028642;23;98381;-83
2022/09/03 06:54:00;;;;;;;4.30;2.30;;;;;;;25.85;33.06;100574.09;6021175;23;96863;-82
2022/09/03 06:56:26;;;;;;;6.25;2.30;;;;;;;26.54;31.66;100564.00;5981284;23;96830;-83
2022/09/03 06:58:59;;;;;;;7.05;2.47;;;;;;;27.20;30.83;100557.47;6004526;23;100920;-83
2022/09/03 07:01:26;;;;;;;6.38;2.70;;;;;;;27.92;30.24;100548.28;6005477;23;98799;-83
2022/09/03 07:03:55;;;;;;;5.57;2.70;;;;;;;28.37;29.73;100549.03;6003213;23;97328;-83
2022/09/03 07:06:21;;;;;;;4.70;2.47;;;;;;;29.21;28.83;100556.25;6026607;23;97558;-84
2022/09/03 07:08:46;;;;;;;4.90;2.00;;;;;;;29.14;27.99;100549.81;6004035;23;98208;-84
2022/09/03 07:11:18;;;;;;;6.45;2.58;;;;;;;29.66;27.47;100557.63;6004136;23;100925;-85
2022/09/03 07:13:49;;;;;;;4.93;2.50;;;;;;;26.20;31.50;100565.34;6005001;23;97169;-84
2022/09/03 07:16:17;;;;;;;6.85;2.30;;;;;;;25.77;32.45;100557.81;6005122;23;97417;-83
2022/09/03 07:18:43;;;;;;;4.93;2.28;;;;;;;24.06;35.48;100558.94;5981126;23;101601;-84
2022/09/03 07:21:20;;;;;;;6.85;2.33;;;;;;;25.87;32.92;100564.06;5981119;23;100924;-84
2022/09/03 07:23:47;;;;;;;5.82;2.28;;;;;;;28.03;30.29;100555.28;6003654;23;97194;-84
2022/09/03 07:26:24;;;;;;;10.30;2.88;;;;;;;27.88;30.34;100562.28;6005777;23;97104;-86
2022/09/03 07:28:50;;;;;;;5.03;2.53;;;;;;;26.75;31.88;100551.09;6006371;23;101456;-86
2022/09/03 07:31:24;;;;;;;6.55;2.50;;;;;;;25.51;33.18;100565.63;5982953;23;101821;-87
2022/09/03 07:33:59;;;;;;;9.63;3.15;;;;;;;28.14;29.86;100548.75;5985919;23;96676;-84
2022/09/03 07:36:27;;;;;;;4.32;2.30;;;;;;;29.64;28.06;100564.22;6022058;23;97068;-83
2022/09/03 07:38:57;;;;;;;6.53;2.55;;;;;;;30.73;26.62;100551.91;6063331;23;97461;-92
2022/09/03 07:41:25;;;;;;;7.28;2.75;;;;;;;31.00;26.64;100555.97;6014398;23;101422;-87
2022/09/03 07:43:51;;;;;;;5.28;2.88;;;;;;;32.23;24.86;100551.19;6038772;23;97130;-87
2022/09/03 07:46:22;;;;;;;4.80;2.80;;;;;;;32.18;25.00;100540.03;6037704;23;97237;-81
2022/09/03 07:48:52;;;;;;;4.80;2.55;;;;;;;32.76;24.50;100552.91;6011772;23;101516;-90
2022/09/03 07:51:19;;;;;;;10.98;3.13;;;;;;;32.41;24.92;100548.06;6034777;23;97783;-85
2022/09/03 07:53:46;;;;;;;5.00;2.58;;;;;;;32.81;24.77;100550.44;6035670;23;96839;-82
2022/09/03 07:56:13;;;;;;;6.68;2.78;;;;;;;32.25;25.22;100540.13;6030095;23;97279;-81
2022/09/03 07:58:40;;;;;;;6.95;3.03;;;;;;;32.41;25.62;100548.06;6032347;23;100913;-82
2022/09/03 08:01:10;;;;;;;8.88;3.25;;;;;;;31.46;26.28;100547.88;6057366;23;97285;-81
2022/09/03 08:03:36;;;;;;;;;;;;;;;30.68;27.35;100545.13;6058755;23;97270;-81
2022/09/03 08:06:03;;;;;;;8.07;3.00;;;;;;;30.00;27.01;100529.50;6033562;23;96982;-89
2022/09/03 08:08:30;;;;;;;4.72;2.80;;;;;;;29.00;28.73;100558.53;6033264;23;98429;-81
2022/09/03 08:11:03;;;;;;;8.93;3.50;;;;;;;28.87;28.88;100553.63;6033488;23;101674;-83
2022/09/03 08:13:28;;;;;;;11.52;3.22;;;;;;;28.52;29.80;100539.34;6053050;23;97592;-83
2022/09/03 08:15:55;;;;;;;6.93;3.10;;;;;;;28.73;30.09;100533.50;6055391;23;97130;-81
2022/09/03 08:18:22;;;;;;;6.50;3.20;;;;;;;29.23;29.53;100535.28;6030331;23;97375;-83
2022/09/03 08:20:47;;;;;;;6.82;3.20;;;;;;;29.93;28.68;100552.84;6009387;23;100980;-83
2022/09/03 08:23:13;;;;;;;7.88;3.10;;;;;;;30.53;29.00;100549.63;6010137;23;97307;-85
2022/09/03 08:25:39;;;;;;;5.70;2.80;;;;;;;30.07;28.22;100554.81;6060471;23;97174;-85
2022/09/03 08:28:04;;;;;;;5.70;3.35;;;;;;;29.66;29.29;100543.25;6006608;23;101349;-83
2022/09/03 08:30:30;;;;;;;5.53;3.10;;;;;;;30.20;29.23;100519.94;6032034;23;101227;-83
2022/09/03 08:32:55;;;;;;;5.28;3.13;;;;;;;29.95;29.07;100526.47;6085624;23;96706;-86
2022/09/03 08:35:21;;;;;;;5.82;3.28;;;;;;;28.41;30.41;100524.28;6011541;23;97014;-85
2022/09/03 08:37:52;;;;;;;9.32;3.60;;;;;;;28.53;30.44;100532.94;6012161;23;101063;-84
2022/09/03 08:40:19;;;;;;;5.18;2.80;;;;;;;28.94;30.52;100527.63;6011749;23;101188;-86
2022/09/03 08:42:49;;;;;;;6.38;2.97;;;;;;;28.74;29.87;100528.94;6037706;23;96681;-88
2022/09/03 08:45:20;;;;;;;15.02;4.78;;;;;;;28.62;30.18;100507.66;6061608;23;97294;-88
2022/09/03 08:48:12;;;;;;;;;;;;;;;28.71;30.22;100526.56;6035925;23;101549;-88
2022/09/03 08:50:44;;;;;;;3.85;2.53;;;;;;;28.71;30.09;100523.88;6057267;23;97930;-87
2022/09/03 08:53:22;;;;;;;6.97;3.13;;;;;;;29.28;30.25;100513.16;6034946;23;97297;-85
2022/09/03 08:56:02;;;;;;;6.13;2.92;;;;;;;29.06;30.07;100523.63;6035456;23;97317;-84
2022/09/03 08:58:31;;;;;;;11.15;3.22;;;;;;;28.84;31.23;100525.09;6060293;23;98154;-85
2022/09/03 09:01:05;;;;;;;5.68;3.17;;;;;;;28.51;30.19;100517.91;6035162;23;99758;-86
2022/09/03 09:03:41;;;;;;;5.53;3.15;;;;;;;28.69;30.28;100523.22;6035336;23;97115;-82
2022/09/03 09:06:18;;;;;;;5.63;2.83;;;;;;;29.09;30.33;100530.56;6009326;23;97155;-82
2022/09/03 09:09:07;;;;;;;6.00;2.70;;;;;;;29.38;29.96;100529.19;6060142;23;98317;-83
2022/09/03 09:12:02;;;;;;;4.27;2.70;;;;;;;29.28;29.66;100529.38;6034826;23;101769;-83
2022/09/03 09:14:55;;;;;;;5.00;3.05;;;;;;;28.96;30.54;100520.19;6034101;23;97403;-83
2022/09/03 09:17:44;;;;;;;6.38;2.45;;;;;;;29.34;29.66;100520.59;6056195;23;97391;-83
2022/09/03 09:20:35;;;;;;;4.93;2.45;;;;;;;29.52;29.80;100518.53;6032743;23;101611;-83
2022/09/03 09:23:05;;;;;;;8.00;3.03;;;;;;;29.91;29.45;100515.13;6059491;23;98245;-83
2022/09/03 09:25:32;;;;;;;6.28;3.08;;;;;;;29.95;29.17;100502.94;6037423;23;97168;-84
2022/09/03 09:28:00;;;;;;;4.20;2.50;;;;;;;29.82;29.14;100507.19;6012438;23;97125;-81
2022/09/03 09:30:27;;;;;;;6.00;3.05;;;;;;;29.40;29.18;100514.50;6036983;23;101507;-84
2022/09/03 09:32:52;;;;;;;4.25;2.78;;;;;;;29.56;29.25;100514.50;6036770;23;101734;-82
2022/09/03 09:35:18;;;;;;;9.57;2.95;;;;;;;29.85;29.02;100498.78;6035565;23;96941;-82
2022/09/03 09:37:54;;;;;;;7.65;2.67;;;;;;;29.49;29.41;100493.72;6035374;23;97020;-81
2022/09/03 09:40:33;;;;;;;5.32;2.85;;;;;;;29.40;29.29;100492.88;6035584;23;98459;-81
2022/09/03 09:43:20;;;;;;;4.15;2.55;;;;;;;29.37;29.30;100497.78;6035378;23;101564;-80
2022/09/03 09:45:51;;;;;;;9.40;2.80;;;;;;;29.05;29.58;100500.31;6060443;23;97272;-82
2022/09/03 09:48:37;;;;;;;4.95;2.75;;;;;;;29.53;29.47;100482.41;6033548;23;97753;-81
2022/09/03 09:51:10;;;;;;;4.50;2.38;;;;;;;29.48;29.25;100482.06;6033492;23;101908;-79
2022/09/03 09:53:35;;;;;;;5.15;2.63;;;;;;;29.35;29.62;100479.03;6030402;23;100973;-81
2022/09/03 09:56:01;;;;;;;5.47;2.83;;;;;;;28.56;31.05;100478.59;6031349;23;97277;-83
2022/09/03 09:58:29;;;;;;;4.90;2.70;;;;;;;28.13;31.50;100485.88;6033231;23;96864;-82
2022/09/03 10:01:13;;;;;;;3.95;2.38;;;;;;;28.31;30.54;100495.72;6034365;23;99166;-81
2022/09/03 10:03:47;;;;;;;4.63;2.78;;;;;;;28.10;30.95;100502.38;6034007;23;101331;-81
2022/09/03 10:09:26;;;;;;;5.32;2.42;;;;;;;27.24;31.18;100507.69;6058641;23;96787;-82
2022/09/03 10:12:35;;;;;;;6.28;2.88;;;;;;;27.13;31.64;100483.63;6025044;23;98648;-82
2022/09/03 10:15:09;;;;;;;3.67;2.30;;;;;;;27.23;31.76;100481.75;5889560;23;101641;-82
2022/09/03 10:17:47;;;;;;;6.25;2.78;;;;;;;27.06;31.76;100472.63;6069222;23;97432;-81
2022/09/03 10:20:26;;;;;;;7.47;2.85;;;;;;;26.54;32.37;100448.25;6033536;23;96794;-81
2022/09/03 10:23:19;;;;;;;3.97;2.17;;;;;;;26.58;32.42;100455.84;6035691;23;101601;-81
2022/09/03 10:25:54;;;;;;;4.03;2.60;;;;;;;26.37;33.00;100471.41;6004187;23;100817;-83
2022/09/03 10:28:24;;;;;;;7.00;2.60;;;;;;;26.22;33.25;100465.69;6055290;23;97401;-82
2022/09/03 10:30:57;;;;;;;8.83;2.77;;;;;;;26.06;33.48;100463.63;6031272;23;97487;-82
2022/09/03 10:33:27;;;;;;;5.65;2.20;;;;;;;25.85;33.69;100490.75;6032881;23;101455;-81
2022/09/03 10:36:06;;;;;;;2.90;2.08;;;;;;;25.52;33.93;100476.81;6033399;23;102439;-80
2022/09/03 10:38:36;;;;;;;7.05;2.60;;;;;;;25.00;34.62;100475.44;6036435;23;96947;-83
2022/09/03 10:41:18;;;;;;;5.65;2.50;;;;;;;24.67;35.18;100482.03;6009997;23;97054;-80
2022/09/03 10:44:06;;;;;;;4.80;2.35;;;;;;;24.41;35.50;100469.13;6031359;23;100041;-80
2022/09/03 10:46:44;;;;;;;5.50;2.58;;;;;;;24.23;36.49;100466.28;6034702;23;101276;-82
2022/09/03 10:49:18;;;;;;;8.43;2.65;;;;;;;24.19;36.32;100467.50;6033954;23;97146;-82
2022/09/03 10:52:10;;;;;;;5.97;2.30;;;;;;;24.17;36.88;100466.78;6085684;23;97217;-82
2022/09/03 10:54:43;;;;;;;7.13;2.78;;;;;;;23.78;36.91;100444.38;6057228;23;98725;-82
2022/09/03 10:57:31;;;;;;;4.70;2.30;;;;;;;23.66;36.77;100465.84;6059237;23;97457;-81
2022/09/03 11:00:17;;;;;;;5.32;2.10;;;;;;;23.63;37.47;100454.56;6083265;23;97319;-81
2022/09/03 11:03:04;;;;;;;4.03;2.55;;;;;;;23.39;38.11;100457.53;6036655;23;96842;-83
2022/09/03 11:05:37;;;;;;;7.15;2.75;;;;;;;23.47;38.59;100449.66;6058123;23;96788;-77
2022/09/03 11:08:15;;;;;;;7.05;2.78;;;;;;;23.33;37.92;100453.53;6033631;23;101145;-83
2022/09/03 11:10:49;;;;;;;5.50;2.42;;;;;;;23.31;38.43;100444.78;6034531;23;97141;-78
2022/09/03 11:13:21;;;;;;;5.32;2.08;;;;;;;23.17;38.15;100437.91;6058198;23;96971;-78
2022/09/03 11:15:58;;;;;;;7.97;2.20;;;;;;;23.05;38.67;100438.97;6032937;23;100075;-78
2022/09/03 11:18:32;;;;;;;5.47;2.58;;;;;;;22.83;38.48;100430.03;6008926;23;101632;-83
2022/09/03 11:21:01;;;;;;;6.78;2.30;;;;;;;22.78;38.65;100434.09;6039494;23;97975;-90
2022/09/03 11:23:28;;;;;;;5.60;2.47;;;;;;;22.56;38.86;100421.63;6015525;23;96806;-87
2022/09/03 11:25:56;;;;;;;7.30;2.35;;;;;;;22.83;38.69;100423.81;6037644;23;100424;-87
2022/09/03 11:28:44;;;;;;;6.65;2.30;;;;;;;22.86;39.91;100430.75;6012880;23;103566;-89
2022/09/03 11:31:16;;;;;;;8.40;3.00;;;;;;;22.80;38.80;100419.56;6034866;23;97404;-90
2022/09/03 11:33:52;;;;;;;9.63;3.08;;;;;;;22.92;39.13;100430.22;6087640;23;97156;-89
2022/09/03 11:36:46;;;;;;;6.82;2.70;;;;;;;22.73;38.82;100425.59;6010974;23;101772;-91
2022/09/03 11:39:31;;;;;;;5.28;2.45;;;;;;;22.62;39.52;100420.28;6003136;23;101328;-80
2022/09/03 11:42:05;;;;;;;5.78;2.22;;;;;;;22.64;39.41;100429.03;6085264;23;96980;-79
2022/09/03 11:44:42;;;;;;;6.60;2.47;;;;;;;22.85;39.73;100418.34;6059683;23;96782;-79
2022/09/03 11:47:42;;;;;;;5.93;2.42;;;;;;;22.99;39.26;100410.88;6057760;23;97767;-79
2022/09/03 11:50:29;;;;;;;4.03;2.30;;;;;;;23.03;38.86;100415.00;6007569;23;100896;-81